createdAt,value
2022-12-03T00:02:05.253Z,102362.25
2022-12-03T00:04:33.799Z,102363.06
2022-12-03T00:07:02.432Z,102357.72
2022-12-03T00:09:30.840Z,102364.59
2022-12-03T00:11:59.457Z,102361.00
2022-12-03T00:14:30.418Z,102357.38
2022-12-03T00:16:59.018Z,102364.31
2022-12-03T00:19:27.668Z,102366.03
2022-12-03T00:21:56.254Z,102364.13
2022-12-03T00:24:25.186Z,102364.06
2022-12-03T00:26:54.072Z,102365.00
2022-12-03T00:29:30.237Z,102375.53
2022-12-03T00:32:01.017Z,102368.59
2022-12-03T00:34:30.298Z,102371.28
2022-12-03T00:36:58.975Z,102371.22
2022-12-03T00:39:27.768Z,102376.59
2022-12-03T00:41:56.457Z,102380.16
2022-12-03T00:44:24.959Z,102370.56
2022-12-03T00:46:55.069Z,102373.19
2022-12-03T00:49:25.459Z,102371.41
2022-12-03T00:51:54.261Z,102371.41
2022-12-03T00:54:28.339Z,102359.16
2022-12-03T00:57:01.090Z,102355.59
2022-12-03T00:59:29.772Z,102365.28
2022-12-03T01:01:59.975Z,102356.47
2022-12-03T01:04:28.864Z,102359.16
2022-12-03T01:06:57.483Z,102357.47
2022-12-03T01:09:27.184Z,102353.06
2022-12-03T01:12:00.178Z,102353.06
2022-12-03T01:14:35.632Z,102362.72
2022-12-03T01:17:25.938Z,102353.97
2022-12-03T01:19:54.710Z,102363.59
2022-12-03T01:22:23.269Z,102361.88
2022-12-03T01:24:52.127Z,102368.84
2022-12-03T01:27:22.054Z,102367.19
2022-12-03T01:29:52.716Z,102366.31
2022-12-03T01:32:21.665Z,102368.97
2022-12-03T01:34:52.559Z,102375.13
2022-12-03T01:37:23.691Z,102378.59
2022-12-03T01:39:52.925Z,102390.91
2022-12-03T01:42:25.600Z,102391.84
2022-12-03T01:44:57.623Z,102391.84
2022-12-03T01:47:31.603Z,102389.31
2022-12-03T01:50:05.468Z,102386.69
2022-12-03T01:52:38.811Z,102381.44
2022-12-03T01:55:15.358Z,102391.03
2022-12-03T01:57:49.313Z,102392.03
2022-12-03T02:00:21.638Z,102390.25
2022-12-03T02:02:55.466Z,102389.41
2022-12-03T02:05:28.844Z,102386.03
2022-12-03T02:07:59.612Z,102388.59
2022-12-03T02:10:32.639Z,102396.47
2022-12-03T02:13:05.674Z,102394.66
2022-12-03T02:15:34.836Z,102393.91
2022-12-03T02:18:05.071Z,102398.38
2022-12-03T02:20:38.056Z,102393.28
2022-12-03T02:23:13.678Z,102388.91
2022-12-03T02:25:43.907Z,102378.41
2022-12-03T02:28:12.717Z,102388.94
2022-12-03T02:30:41.296Z,102386.47
2022-12-03T02:33:09.725Z,102389.09
2022-12-03T02:35:40.058Z,102391.72
2022-12-03T02:38:14.581Z,102391.75
2022-12-03T02:40:47.336Z,102389.19
2022-12-03T02:43:17.039Z,102381.22
2022-12-03T02:45:48.397Z,102379.53
2022-12-03T02:48:19.486Z,102376.16
2022-12-03T02:50:51.654Z,102373.59
2022-12-03T02:53:25.123Z,102375.38
2022-12-03T02:55:57.824Z,102373.69
2022-12-03T02:58:29.714Z,102374.63
2022-12-03T03:01:00.084Z,102372.09
2022-12-03T03:03:31.066Z,102366.06
2022-12-03T03:06:02.657Z,102366.16
2022-12-03T03:08:32.906Z,102365.41
2022-12-03T03:11:04.328Z,102364.63
2022-12-03T03:13:35.754Z,102360.47
2022-12-03T03:16:05.573Z,102365.09
2022-12-03T03:18:34.939Z,102364.47
2022-12-03T03:21:03.994Z,102365.56
2022-12-03T03:23:32.449Z,102362.19
2022-12-03T03:26:06.136Z,102359.78
2022-12-03T03:28:39.446Z,102353.91
2022-12-03T03:31:10.517Z,102358.56
2022-12-03T03:33:40.835Z,102353.47
2022-12-03T03:36:12.656Z,102354.47
2022-12-03T03:38:41.540Z,102352.88
2022-12-03T03:41:13.607Z,102353.97
2022-12-03T03:43:45.090Z,102352.38
2022-12-03T03:46:16.767Z,102357.72
2022-12-03T03:48:45.588Z,102355.16
2022-12-03T03:51:14.794Z,102354.38
2022-12-03T03:53:48.224Z,102353.69
2022-12-03T03:56:23.264Z,102358.19
2022-12-03T03:58:51.806Z,102349.63
2022-12-03T04:01:20.595Z,102348.88
2022-12-03T04:03:49.429Z,102338.44
2022-12-03T04:06:17.941Z,102330.63
2022-12-03T04:08:46.852Z,102336.81
2022-12-03T04:11:33.728Z,102328.09
2022-12-03T04:14:04.111Z,102321.22
2022-12-03T04:16:32.869Z,102328.22
2022-12-03T04:19:01.472Z,102326.53
2022-12-03T04:21:47.537Z,102316.91
2022-12-03T04:24:16.486Z,102318.69
2022-12-03T04:27:02.537Z,102317.06
2022-12-03T04:29:32.566Z,102308.56
2022-12-03T04:32:18.255Z,102306.00
2022-12-03T04:35:04.669Z,102309.50
2022-12-03T04:37:34.245Z,102305.28
2022-12-03T04:40:23.017Z,102297.47
2022-12-03T04:42:51.463Z,102300.91
2022-12-03T04:45:22.555Z,102305.06
2022-12-03T04:47:51.408Z,102296.13
2022-12-03T04:50:19.917Z,102302.81
2022-12-03T04:52:49.753Z,102296.50
2022-12-03T04:55:19.366Z,102298.09
2022-12-03T04:57:48.974Z,102296.84
2022-12-03T05:00:18.665Z,102295.91
2022-12-03T05:02:48.777Z,102292.28
2022-12-03T05:05:18.216Z,102281.59
2022-12-03T05:07:46.859Z,102287.59
2022-12-03T05:10:15.786Z,102291.91
2022-12-03T05:12:44.408Z,102292.69
2022-12-03T05:15:13.294Z,102290.91
2022-12-03T05:17:41.798Z,102296.13
2022-12-03T05:20:30.554Z,102289.16
2022-12-03T05:22:59.134Z,102281.22
2022-12-03T05:25:27.863Z,102277.59
2022-12-03T05:27:56.340Z,102278.53
2022-12-03T05:30:25.140Z,102275.84
2022-12-03T05:32:54.935Z,102275.84
2022-12-03T05:35:25.881Z,102270.53
2022-12-03T05:37:54.558Z,102269.63
2022-12-03T05:40:23.150Z,102266.06
2022-12-03T05:42:57.388Z,102258.19
2022-12-03T05:45:28.357Z,102262.50
2022-12-03T05:47:58.554Z,102260.69
2022-12-03T05:50:31.027Z,102256.38
2022-12-03T05:53:00.629Z,102252.81
2022-12-03T05:55:30.570Z,102247.56
2022-12-03T05:57:59.420Z,102248.34
2022-12-03T06:00:31.006Z,102247.50
2022-12-03T06:03:00.501Z,102241.44
2022-12-03T06:05:31.097Z,102245.72
2022-12-03T06:08:00.307Z,102239.50
2022-12-03T06:10:29.686Z,102239.34
2022-12-03T06:12:58.618Z,102239.31
2022-12-03T06:15:27.170Z,102234.09
2022-12-03T06:17:55.754Z,102233.22
2022-12-03T06:20:24.371Z,102234.06
2022-12-03T06:22:55.554Z,102240.09
2022-12-03T06:25:24.156Z,102232.19
2022-12-03T06:27:52.936Z,102230.44
2022-12-03T06:30:22.466Z,102234.75
2022-12-03T06:32:51.965Z,102228.63
2022-12-03T06:35:22.412Z,102221.69
2022-12-03T06:37:50.816Z,102215.47
2022-12-03T06:40:21.956Z,102228.38
2022-12-03T06:42:50.291Z,102221.66
2022-12-03T06:45:18.798Z,102218.16
2022-12-03T06:47:47.431Z,102217.25
2022-12-03T06:50:16.024Z,102217.25
2022-12-03T06:52:44.553Z,102226.03
2022-12-03T06:55:13.336Z,102220.75
2022-12-03T06:57:43.345Z,102209.47
2022-12-03T07:00:13.069Z,102219.06
2022-12-03T07:02:41.599Z,102222.56
2022-12-03T07:05:10.314Z,102219.06
2022-12-03T07:07:39.982Z,102217.38
2022-12-03T07:10:10.115Z,102214.66
2022-12-03T07:12:38.690Z,102210.25
2022-12-03T07:15:09.777Z,102206.00
2022-12-03T07:17:39.363Z,102212.09
2022-12-03T07:20:09.469Z,102211.25
2022-12-03T07:22:38.191Z,102207.78
2022-12-03T07:25:08.409Z,102216.50
2022-12-03T07:27:37.350Z,102210.34
2022-12-03T07:30:06.822Z,102214.66
2022-12-03T07:32:36.927Z,102212.09
2022-12-03T07:35:07.879Z,102208.50
2022-12-03T07:37:37.958Z,102205.81
2022-12-03T07:40:07.898Z,102202.38
2022-12-03T07:42:37.779Z,102210.97
2022-12-03T07:45:07.400Z,102204.91
2022-12-03T07:47:37.796Z,102205.00
2022-12-03T07:50:07.855Z,102203.25
2022-12-03T07:52:36.994Z,102215.53
2022-12-03T07:55:06.188Z,102204.16
2022-12-03T07:57:34.505Z,102205.16
2022-12-03T08:00:03.200Z,102205.16
2022-12-03T08:02:31.861Z,102208.56
2022-12-03T08:05:01.949Z,102205.16
2022-12-03T08:07:30.497Z,102203.38
2022-12-03T08:09:59.288Z,102206.78
2022-12-03T08:12:40.403Z,102204.09
2022-12-03T08:15:15.627Z,102199.63
2022-12-03T08:17:46.069Z,102195.03
2022-12-03T08:20:55.634Z,102194.38
2022-12-03T08:23:26.427Z,102193.44
2022-12-03T08:25:55.299Z,102186.41
2022-12-03T08:28:26.153Z,102189.94
2022-12-03T08:31:02.729Z,102184.72
2022-12-03T08:33:35.650Z,102183.84
2022-12-03T08:36:14.864Z,102182.94
2022-12-03T08:38:46.644Z,102192.59
2022-12-03T08:41:37.656Z,102187.34
2022-12-03T08:44:19.438Z,102186.41
2022-12-03T08:46:55.545Z,102186.50
2022-12-03T08:49:24.330Z,102185.56
2022-12-03T08:52:00.960Z,102184.66
2022-12-03T08:54:29.874Z,102185.53
2022-12-03T08:56:58.571Z,102168.81
2022-12-03T08:59:31.452Z,102173.09
2022-12-03T09:02:01.192Z,102166.19
2022-12-03T09:04:38.099Z,102163.56
2022-12-03T09:07:08.165Z,102165.34
2022-12-03T09:09:36.609Z,102165.34
2022-12-03T09:12:05.210Z,102163.56
2022-12-03T09:14:33.877Z,102159.16
2022-12-03T09:17:02.839Z,102157.31
2022-12-03T09:19:32.834Z,102161.66
2022-12-03T09:22:01.485Z,102158.00
2022-12-03T09:24:31.572Z,102158.91
2022-12-03T09:27:00.368Z,102156.22
2022-12-03T09:29:28.941Z,102158.00
2022-12-03T09:31:57.455Z,102157.06
2022-12-03T09:34:25.811Z,102155.38
2022-12-03T09:36:54.194Z,102161.47
2022-12-03T09:39:22.807Z,102162.34
2022-12-03T09:41:53.113Z,102156.44
2022-12-03T09:44:21.932Z,102167.16
2022-12-03T09:46:51.325Z,102160.00
2022-12-03T09:49:21.356Z,102165.91
2022-12-03T09:51:49.910Z,102159.91
2022-12-03T09:54:25.397Z,102164.31
2022-12-03T09:56:56.500Z,102164.53
2022-12-03T09:59:28.999Z,102161.03
2022-12-03T10:01:57.873Z,102160.47
2022-12-03T10:04:27.081Z,102166.19
2022-12-03T10:06:56.603Z,102160.28
2022-12-03T10:09:27.904Z,102170.16
2022-12-03T10:11:58.944Z,102162.59
2022-12-03T10:14:28.654Z,102166.00
2022-12-03T10:16:57.867Z,102159.34
2022-12-03T10:19:29.155Z,102166.44
2022-12-03T10:21:57.935Z,102158.56
2022-12-03T10:24:29.240Z,102163.47
2022-12-03T10:27:01.213Z,102161.50
2022-12-03T10:29:34.187Z,102155.59
2022-12-03T10:32:05.455Z,102157.63
2022-12-03T10:34:36.093Z,102154.72
2022-12-03T10:37:14.120Z,102149.88
2022-12-03T10:40:05.898Z,102153.72
2022-12-03T10:42:38.116Z,102152.00
2022-12-03T10:45:15.478Z,102145.53
2022-12-03T10:47:45.423Z,102146.44
2022-12-03T10:50:20.822Z,102135.88
2022-12-03T10:52:49.470Z,102142.34
2022-12-03T10:55:18.585Z,102142.97
2022-12-03T10:57:48.483Z,102120.66
2022-12-03T11:00:19.379Z,102119.59
2022-12-03T11:02:54.945Z,102121.47
2022-12-03T11:05:28.787Z,102110.94
2022-12-03T11:07:58.767Z,102114.34
2022-12-03T11:10:32.848Z,102108.31
2022-12-03T11:13:43.901Z,102104.75
2022-12-03T11:16:13.418Z,102106.53
2022-12-03T11:19:02.641Z,102100.28
2022-12-03T11:21:32.081Z,102099.50
2022-12-03T11:24:06.001Z,102091.69
2022-12-03T11:27:11.377Z,102091.50
2022-12-03T11:29:59.322Z,102079.72
2022-12-03T11:33:10.292Z,102068.19
2022-12-03T11:36:11.557Z,102068.84
2022-12-03T11:38:59.407Z,102053.91
2022-12-03T11:41:32.249Z,102051.22
2022-12-03T11:44:17.245Z,102049.25
2022-12-03T11:46:48.733Z,102048.72
2022-12-03T11:49:39.575Z,102047.06
2022-12-03T11:52:31.021Z,102044.22
2022-12-03T11:55:06.055Z,102034.78
2022-12-03T11:57:38.863Z,102036.09
2022-12-03T12:00:17.306Z,102034.75
2022-12-03T12:02:47.662Z,102025.09
2022-12-03T12:05:22.278Z,102010.00
2022-12-03T12:07:51.066Z,102013.91
2022-12-03T12:10:43.517Z,102015.00
2022-12-03T12:13:55.020Z,102004.56
2022-12-03T12:16:51.002Z,102009.50
2022-12-03T12:19:36.635Z,102003.84
2022-12-03T12:22:20.218Z,101991.88
2022-12-03T12:24:53.383Z,102006.00
2022-12-03T12:27:24.037Z,102004.31
2022-12-03T12:29:56.221Z,102007.44
2022-12-03T12:32:28.412Z,101997.78
2022-12-03T12:35:04.523Z,101984.25
2022-12-03T12:37:37.735Z,101982.19
2022-12-03T12:40:15.767Z,101988.78
2022-12-03T12:42:51.299Z,101978.13
2022-12-03T12:45:22.418Z,101975.66
2022-12-03T12:48:07.474Z,101970.13
2022-12-03T12:50:39.473Z,101970.75
2022-12-03T12:53:14.336Z,101979.09
2022-12-03T12:55:43.879Z,101966.13
2022-12-03T12:58:17.418Z,101964.31
2022-12-03T13:00:50.228Z,101965.63
2022-12-03T13:03:20.591Z,101953.16
2022-12-03T13:05:52.904Z,101957.50
2022-12-03T13:08:29.197Z,101961.06
2022-12-03T13:10:59.234Z,101967.13
2022-12-03T13:13:34.061Z,101967.47
2022-12-03T13:16:13.515Z,101962.53
2022-12-03T13:18:47.425Z,101955.44
2022-12-03T13:21:24.062Z,101955.28
2022-12-03T13:23:55.627Z,101954.09
2022-12-03T13:26:37.720Z,101945.78
2022-12-03T13:29:16.736Z,101937.63
2022-12-03T13:31:53.789Z,101935.13
2022-12-03T13:34:25.564Z,101938.53
2022-12-03T13:36:58.571Z,101934.59
2022-12-03T13:39:35.318Z,101935.66
2022-12-03T13:42:37.318Z,101941.13
2022-12-03T13:45:28.958Z,101945.03
2022-12-03T13:47:59.074Z,101932.09
2022-12-03T13:50:35.303Z,101930.16
2022-12-03T13:53:16.132Z,101920.88
2022-12-03T13:55:47.316Z,101912.13
2022-12-03T13:58:15.861Z,101902.81
2022-12-03T14:00:49.047Z,101894.72
2022-12-03T14:03:17.816Z,101887.91
2022-12-03T14:05:46.111Z,101874.34
2022-12-03T14:08:16.406Z,101864.28
2022-12-03T14:10:45.111Z,101861.69
2022-12-03T14:13:13.606Z,101850.63
2022-12-03T14:15:42.261Z,101837.22
2022-12-03T14:18:10.783Z,101830.81
2022-12-03T14:20:40.031Z,101817.00
2022-12-03T14:23:08.374Z,101817.69
2022-12-03T14:25:38.238Z,101824.78
2022-12-03T14:28:09.039Z,101813.66
2022-12-03T14:30:37.776Z,101819.16
2022-12-03T14:33:06.465Z,101822.13
2022-12-03T14:35:35.652Z,101822.69
2022-12-03T14:38:04.302Z,101819.88
2022-12-03T14:40:33.528Z,101820.53
2022-12-03T14:43:03.559Z,101825.81
2022-12-03T14:45:32.333Z,101828.72
2022-12-03T14:48:01.162Z,101823.41
2022-12-03T14:50:29.783Z,101826.25
2022-12-03T14:52:58.631Z,101831.13
2022-12-03T14:55:27.359Z,101817.28
2022-12-03T14:57:56.150Z,101818.50
2022-12-03T15:00:26.300Z,101821.00
2022-12-03T15:02:54.902Z,101819.91
2022-12-03T15:05:28.611Z,101819.22
2022-12-03T15:07:59.209Z,101808.09
2022-12-03T15:10:28.196Z,101814.09
2022-12-03T15:12:56.796Z,101815.78
2022-12-03T15:15:26.658Z,101816.72
2022-12-03T15:17:55.187Z,101816.72
2022-12-03T15:20:23.960Z,101814.16
2022-12-03T15:22:53.288Z,101808.91
2022-12-03T15:25:25.711Z,101824.69
2022-12-03T15:27:54.051Z,101823.03
2022-12-03T15:30:22.581Z,101821.75
2022-12-03T15:32:52.556Z,101832.34
2022-12-03T15:35:21.147Z,101827.09
2022-12-03T15:37:49.720Z,101835.97
2022-12-03T15:40:18.417Z,101829.97
2022-12-03T15:42:47.038Z,101840.97
2022-12-03T15:45:15.733Z,101849.38
2022-12-03T15:47:45.504Z,101847.25
2022-12-03T15:50:16.731Z,101838.88
2022-12-03T15:52:45.477Z,101832.50
2022-12-03T15:55:14.179Z,101834.75
2022-12-03T15:57:42.645Z,101827.81
2022-12-03T16:00:13.517Z,101826.97
2022-12-03T16:02:45.144Z,101829.69
2022-12-03T16:05:19.504Z,101815.75
2022-12-03T16:07:48.137Z,101824.56
2022-12-03T16:10:17.981Z,101819.44
2022-12-03T16:12:48.968Z,101818.72
2022-12-03T16:15:23.679Z,101809.91
2022-12-03T16:17:55.845Z,101814.31
2022-12-03T16:20:25.901Z,101799.69
2022-12-03T16:22:55.674Z,101800.59
2022-12-03T16:25:26.378Z,101810.13
2022-12-03T16:27:55.060Z,101804.75
2022-12-03T16:30:24.900Z,101797.72
2022-12-03T16:32:54.476Z,101797.75
2022-12-03T16:35:23.048Z,101799.41
2022-12-03T16:37:53.063Z,101800.38
2022-12-03T16:40:21.641Z,101790.81
2022-12-03T16:42:50.038Z,101783.66
2022-12-03T16:45:33.968Z,101781.09
2022-12-03T16:48:03.864Z,101783.78
2022-12-03T16:50:32.280Z,101775.13
2022-12-03T16:53:02.488Z,101776.06
2022-12-03T16:55:31.068Z,101770.94
2022-12-03T16:57:59.449Z,101764.03
2022-12-03T17:00:28.482Z,101766.66
2022-12-03T17:02:58.224Z,101765.78
2022-12-03T17:05:27.011Z,101767.44
2022-12-03T17:07:55.791Z,101754.25
2022-12-03T17:10:25.883Z,101761.06
2022-12-03T17:13:09.229Z,101754.00
2022-12-03T17:15:40.168Z,101751.41
2022-12-03T17:18:09.784Z,101754.97
2022-12-03T17:20:41.746Z,101745.44
2022-12-03T17:23:12.098Z,101750.69
2022-12-03T17:25:43.502Z,101748.88
2022-12-03T17:28:13.268Z,101755.09
2022-12-03T17:30:41.956Z,101753.53
2022-12-03T17:33:12.286Z,101746.72
2022-12-03T17:35:41.764Z,101748.25
2022-12-03T17:38:11.596Z,101737.06
2022-12-03T17:40:40.266Z,101734.50
2022-12-03T17:43:10.558Z,101733.59
2022-12-03T17:45:38.956Z,101721.38
2022-12-03T17:48:08.474Z,101728.38
2022-12-03T17:50:39.107Z,101725.03
2022-12-03T17:53:10.779Z,101732.06
2022-12-03T17:55:44.605Z,101732.25
2022-12-03T17:58:16.666Z,101730.88
2022-12-03T18:00:45.691Z,101736.47
2022-12-03T18:03:14.820Z,101737.22
2022-12-03T18:05:43.462Z,101736.59
2022-12-03T18:08:11.974Z,101738.66
2022-12-03T18:10:40.557Z,101737.81
2022-12-03T18:13:10.121Z,101743.09
2022-12-03T18:15:40.076Z,101732.47
2022-12-03T18:18:08.641Z,101735.84
2022-12-03T18:20:37.690Z,101738.38
2022-12-03T18:23:07.140Z,101733.06
2022-12-03T18:25:37.274Z,101734.72
2022-12-03T18:28:06.237Z,101733.97
2022-12-03T18:30:36.015Z,101739.22
2022-12-03T18:33:09.009Z,101737.44
2022-12-03T18:35:37.810Z,101741.78
2022-12-03T18:38:06.642Z,101739.16
2022-12-03T18:40:35.546Z,101733.13
2022-12-03T18:43:04.244Z,101730.69
2022-12-03T18:45:35.491Z,101731.88
2022-12-03T18:48:04.131Z,101729.50
2022-12-03T18:50:34.466Z,101727.69
2022-12-03T18:53:03.421Z,101719.88
2022-12-03T18:55:36.095Z,101715.44
2022-12-03T18:58:06.237Z,101724.88
2022-12-03T19:00:36.101Z,101724.72
2022-12-03T19:03:05.210Z,101728.00
2022-12-03T19:05:38.086Z,101726.22
2022-12-03T19:08:15.156Z,101728.34
2022-12-03T19:10:47.213Z,101726.81
2022-12-03T19:13:15.782Z,101727.06
2022-12-03T19:15:45.961Z,101715.66
2022-12-03T19:18:15.789Z,101707.94
2022-12-03T19:20:48.480Z,101705.13
2022-12-03T19:23:18.111Z,101702.44
2022-12-03T19:25:57.852Z,101702.53
2022-12-03T19:28:27.274Z,101692.97
2022-12-03T19:31:00.871Z,101692.91
2022-12-03T19:33:30.126Z,101689.22
2022-12-03T19:36:02.186Z,101683.94
2022-12-03T19:38:31.697Z,101681.25
2022-12-03T19:41:02.006Z,101683.97
2022-12-03T19:43:32.188Z,101685.91
2022-12-03T19:46:05.215Z,101684.19
2022-12-03T19:48:34.768Z,101679.97
2022-12-03T19:51:26.583Z,101686.88
2022-12-03T19:53:56.438Z,101681.63
2022-12-03T19:56:25.976Z,101684.25
2022-12-03T19:58:56.529Z,101678.03
2022-12-03T20:01:27.977Z,101679.66
2022-12-03T20:03:59.098Z,101686.75
2022-12-03T20:06:31.055Z,101686.75
2022-12-03T20:09:02.201Z,101681.75
2022-12-03T20:11:33.111Z,101673.84
2022-12-03T20:14:04.374Z,101683.78
2022-12-03T20:16:33.298Z,101674.94
2022-12-03T20:19:08.944Z,101680.38
2022-12-03T20:21:40.571Z,101681.25
2022-12-03T20:24:12.300Z,101683.06
2022-12-03T20:26:42.336Z,101690.09
2022-12-03T20:29:11.017Z,101696.19
2022-12-03T20:31:41.180Z,101692.69
2022-12-03T20:34:11.514Z,101694.66
2022-12-03T20:36:43.299Z,101701.63
2022-12-03T20:39:12.622Z,101702.72
2022-12-03T20:41:41.325Z,101702.81
2022-12-03T20:44:10.201Z,101696.81
2022-12-03T20:46:38.902Z,101697.53
2022-12-03T20:49:07.569Z,101697.41
2022-12-03T20:51:36.385Z,101691.31
2022-12-03T20:54:06.652Z,101693.09
2022-12-03T20:56:39.586Z,101686.06
2022-12-03T20:59:12.346Z,101691.31
2022-12-03T21:01:43.006Z,101685.22
2022-12-03T21:04:16.630Z,101688.69
2022-12-03T21:06:52.541Z,101686.06
2022-12-03T21:09:24.703Z,101687.75
2022-12-03T21:11:53.272Z,101697.38
2022-12-03T21:14:22.180Z,101698.91
2022-12-03T21:17:08.776Z,101699.19
2022-12-03T21:19:38.394Z,101694.09
2022-12-03T21:22:07.843Z,101697.63
2022-12-03T21:24:43.209Z,101689.78
2022-12-03T21:27:14.584Z,101689.88
2022-12-03T21:29:49.948Z,101691.72
2022-12-03T21:32:18.613Z,101689.88
2022-12-03T21:34:47.450Z,101690.88
2022-12-03T21:37:17.457Z,101688.25
2022-12-03T21:39:49.027Z,101677.63
2022-12-03T21:42:34.275Z,101675.84
2022-12-03T21:45:07.441Z,101667.94
2022-12-03T21:47:37.491Z,101668.78
2022-12-03T21:50:09.599Z,101662.69
2022-12-03T21:52:38.230Z,101656.66
2022-12-03T21:55:08.995Z,101651.56
2022-12-03T21:57:37.955Z,101649.78
2022-12-03T22:00:09.550Z,101644.53
2022-12-03T22:02:40.110Z,101645.56
2022-12-03T22:05:10.909Z,101642.97
2022-12-03T22:07:40.602Z,101640.22
2022-12-03T22:10:13.663Z,101636.69
2022-12-03T22:12:42.479Z,101633.31
2022-12-03T22:15:18.482Z,101628.28
2022-12-03T22:17:51.085Z,101631.06
2022-12-03T22:20:19.889Z,101630.41
2022-12-03T22:22:48.483Z,101627.00
2022-12-03T22:25:19.013Z,101617.50
2022-12-03T22:27:50.547Z,101619.31
2022-12-03T22:30:19.059Z,101620.91
2022-12-03T22:32:50.666Z,101620.00
2022-12-03T22:35:19.239Z,101613.84
2022-12-03T22:37:48.980Z,101620.97
2022-12-03T22:40:19.356Z,101618.44
2022-12-03T22:42:51.803Z,101625.56
2022-12-03T22:45:20.461Z,101618.63
2022-12-03T22:47:49.100Z,101618.72
2022-12-03T22:50:18.111Z,101622.31
2022-12-03T22:52:46.828Z,101618.84
2022-12-03T22:55:15.808Z,101614.34
2022-12-03T22:57:45.911Z,101617.69
2022-12-03T23:00:18.445Z,101609.75
2022-12-03T23:02:47.242Z,101612.63
2022-12-03T23:05:16.328Z,101610.09
2022-12-03T23:07:45.062Z,101604.78
2022-12-03T23:10:14.680Z,101600.47
2022-12-03T23:12:45.969Z,101590.94
2022-12-03T23:15:14.510Z,101605.88
2022-12-03T23:17:45.040Z,101602.59
2022-12-03T23:20:14.633Z,101595.91
2022-12-03T23:22:44.871Z,101596.94
2022-12-03T23:25:14.535Z,101591.81
2022-12-03T23:27:43.267Z,101593.53
2022-12-03T23:30:16.234Z,101594.38
2022-12-03T23:32:45.317Z,101598.69
2022-12-03T23:35:15.076Z,101590.00
2022-12-03T23:37:45.368Z,101597.75
2022-12-03T23:40:14.991Z,101598.59
2022-12-03T23:42:46.326Z,101592.44
2022-12-03T23:45:16.662Z,101586.38
2022-12-03T23:47:46.221Z,101589.81
2022-12-03T23:50:14.941Z,101585.41
2022-12-03T23:52:44.707Z,101583.66
2022-12-03T23:55:14.430Z,101580.19
2022-12-03T23:57:44.328Z,101573.06
